createdAt,value
2018-03-18T00:00:52.824Z,99.99
2018-03-18T00:01:53.065Z,99.99
2018-03-18T00:02:52.771Z,99.99
2018-03-18T00:03:53.018Z,99.99
2018-03-18T00:04:53.013Z,99.99
2018-03-18T00:05:52.690Z,99.99
2018-03-18T00:06:52.727Z,99.99
2018-03-18T00:07:52.905Z,99.99
2018-03-18T00:08:52.621Z,99.99
2018-03-18T00:09:52.859Z,99.99
2018-03-18T00:10:52.562Z,99.99
2018-03-18T00:11:52.800Z,99.99
2018-03-18T00:12:52.778Z,99.99
2018-03-18T00:13:52.525Z,99.99
2018-03-18T00:14:52.726Z,99.99
2018-03-18T00:15:52.434Z,99.99
2018-03-18T00:16:52.406Z,99.99
2018-03-18T00:17:52.379Z,99.99
2018-03-18T00:18:52.625Z,99.99
2018-03-18T00:19:52.325Z,99.99
2018-03-18T00:20:52.305Z,99.99
2018-03-18T00:21:52.282Z,99.99
2018-03-18T00:22:52.247Z,99.99
2018-03-18T00:23:52.486Z,99.99
2018-03-18T00:24:52.200Z,99.99
2018-03-18T00:25:52.171Z,99.99
2018-03-18T00:26:52.142Z,99.99
2018-03-18T00:27:52.383Z,99.99
2018-03-18T00:28:52.355Z,99.99
2018-03-18T00:29:52.398Z,99.99
2018-03-18T00:30:52.354Z,99.99
2018-03-18T00:31:52.012Z,99.99
2018-03-18T00:32:52.248Z,99.99
2018-03-18T00:33:52.229Z,99.99
2018-03-18T00:34:51.930Z,99.99
2018-03-18T00:35:52.184Z,99.99
2018-03-18T00:36:51.877Z,99.99
2018-03-18T00:37:51.852Z,99.99
2018-03-18T00:38:51.825Z,99.99
2018-03-18T00:39:51.800Z,99.99
2018-03-18T00:40:52.042Z,99.99
2018-03-18T00:41:52.019Z,99.99
2018-03-18T00:42:51.994Z,99.99
2018-03-18T00:43:51.963Z,99.99
2018-03-18T00:44:51.935Z,99.99
2018-03-18T00:45:51.647Z,99.99
2018-03-18T00:46:51.882Z,99.99
2018-03-18T00:47:51.858Z,99.99
2018-03-18T00:48:51.844Z,99.99
2018-03-18T00:49:51.807Z,99.99
2018-03-18T00:50:51.910Z,99.99
2018-03-18T00:51:51.484Z,99.99
2018-03-18T00:52:51.456Z,99.99
2018-03-18T00:53:51.698Z,99.99
2018-03-18T00:54:51.673Z,99.99
2018-03-18T00:55:51.667Z,99.99
2018-03-18T00:56:51.616Z,99.99
2018-03-18T00:57:51.383Z,99.99
2018-03-18T00:58:51.301Z,99.99
2018-03-18T00:59:51.580Z,99.99
2018-03-18T01:00:51.511Z,99.99
2018-03-18T01:01:51.222Z,99.99
2018-03-18T01:02:51.199Z,99.99
2018-03-18T01:03:51.432Z,99.99
2018-03-18T01:04:51.409Z,99.99
2018-03-18T01:05:51.386Z,99.99
2018-03-18T01:06:51.430Z,99.99
2018-03-18T01:07:51.546Z,99.99
2018-03-18T01:08:51.309Z,99.99
2018-03-18T01:09:51.276Z,99.99
2018-03-18T01:10:51.314Z,99.99
2018-03-18T01:11:51.048Z,99.99
2018-03-18T01:12:51.003Z,99.99
2018-03-18T01:13:51.174Z,99.99
2018-03-18T01:14:51.173Z,99.99
2018-03-18T01:15:51.132Z,99.99
2018-03-18T01:16:51.097Z,99.99
2018-03-18T01:17:50.802Z,99.99
2018-03-18T01:18:51.041Z,99.99
2018-03-18T01:19:50.751Z,99.99
2018-03-18T01:20:50.985Z,99.99
2018-03-18T01:21:50.957Z,99.99
2018-03-18T01:22:50.727Z,99.99
2018-03-18T01:23:50.717Z,99.99
2018-03-18T01:24:50.620Z,99.99
2018-03-18T01:25:50.618Z,99.99
2018-03-18T01:26:50.831Z,99.99
2018-03-18T01:27:50.801Z,99.99
2018-03-18T01:28:50.510Z,99.99
2018-03-18T01:29:50.482Z,99.99
2018-03-18T01:30:50.457Z,99.99
2018-03-18T01:31:50.446Z,99.99
2018-03-18T01:32:50.675Z,99.99
2018-03-18T01:33:50.442Z,99.99
2018-03-18T01:34:50.621Z,99.99
2018-03-18T01:35:50.659Z,99.99
2018-03-18T01:36:50.297Z,99.99
2018-03-18T01:37:50.588Z,99.99
2018-03-18T01:38:50.682Z,99.99
2018-03-18T01:39:50.284Z,99.99
2018-03-18T01:40:50.270Z,99.99
2018-03-18T01:41:50.435Z,99.99
2018-03-18T01:42:50.485Z,99.99
2018-03-18T01:43:50.178Z,99.99
2018-03-18T01:44:50.408Z,99.99
2018-03-18T01:45:50.062Z,99.99
2018-03-18T01:46:50.296Z,99.99
2018-03-18T01:47:50.299Z,99.99
2018-03-18T01:48:50.369Z,99.99
2018-03-18T01:49:50.305Z,99.99
2018-03-18T01:50:50.416Z,99.99
2018-03-18T01:51:50.214Z,99.99
2018-03-18T01:52:49.913Z,99.99
2018-03-18T01:53:50.111Z,99.99
2018-03-18T01:54:49.916Z,99.99
2018-03-18T01:55:49.796Z,99.99
2018-03-18T01:56:49.772Z,99.99
2018-03-18T01:57:50.003Z,99.99
2018-03-18T01:58:49.719Z,99.99
2018-03-18T01:59:49.696Z,99.99
2018-03-18T02:00:49.662Z,99.99
2018-03-18T02:01:49.638Z,99.99
2018-03-18T02:02:49.879Z,99.99
2018-03-18T02:03:49.844Z,99.99
2018-03-18T02:04:49.557Z,99.99
2018-03-18T02:05:49.531Z,99.99
2018-03-18T02:06:49.818Z,99.99
2018-03-18T02:07:49.745Z,99.99
2018-03-18T02:08:49.447Z,99.99
2018-03-18T02:09:49.424Z,99.99
2018-03-18T02:10:49.423Z,99.99
2018-03-18T02:11:49.633Z,99.99
2018-03-18T02:12:49.344Z,99.99
2018-03-18T02:13:49.376Z,99.99
2018-03-18T02:14:49.562Z,99.99
2018-03-18T02:15:49.267Z,99.99
2018-03-18T02:16:49.495Z,99.99
2018-03-18T02:17:49.478Z,99.99
2018-03-18T02:18:49.566Z,99.99
2018-03-18T02:19:49.152Z,99.99
2018-03-18T02:20:49.397Z,99.99
2018-03-18T02:21:49.373Z,99.99
2018-03-18T02:22:49.343Z,99.99
2018-03-18T02:23:49.044Z,99.99
2018-03-18T02:24:49.028Z,99.99
2018-03-18T02:25:48.992Z,99.99
2018-03-18T02:26:49.232Z,99.99
2018-03-18T02:27:48.949Z,99.99
2018-03-18T02:28:48.922Z,99.99
2018-03-18T02:29:49.155Z,99.99
2018-03-18T02:30:49.131Z,99.99
2018-03-18T02:31:49.099Z,99.99
2018-03-18T02:32:49.077Z,99.99
2018-03-18T02:33:49.048Z,99.99
2018-03-18T02:34:48.761Z,99.99
2018-03-18T02:35:48.996Z,99.99
2018-03-18T02:36:49.035Z,99.99
2018-03-18T02:37:48.941Z,99.99
2018-03-18T02:38:48.656Z,99.99
2018-03-18T02:39:48.922Z,99.99
2018-03-18T02:40:48.927Z,99.99
2018-03-18T02:41:48.570Z,99.99
2018-03-18T02:42:48.825Z,99.99
2018-03-18T02:43:48.573Z,99.99
2018-03-18T02:44:48.492Z,99.99
2018-03-18T02:45:48.461Z,99.99
2018-03-18T02:46:48.713Z,99.99
2018-03-18T02:47:48.422Z,99.99
2018-03-18T02:48:48.386Z,99.99
2018-03-18T02:49:48.625Z,99.99
2018-03-18T02:50:48.326Z,99.99
2018-03-18T02:51:48.582Z,99.99
2018-03-18T02:52:48.541Z,99.99
2018-03-18T02:53:48.584Z,99.99
2018-03-18T02:54:48.491Z,99.99
2018-03-18T02:55:48.234Z,99.99
2018-03-18T02:56:48.187Z,99.99
2018-03-18T02:57:48.219Z,99.99
2018-03-18T02:58:48.130Z,99.99
2018-03-18T02:59:48.376Z,99.99
2018-03-18T03:00:48.063Z,99.99
2018-03-18T03:01:48.040Z,99.99
2018-03-18T03:02:48.015Z,99.99
2018-03-18T03:03:48.306Z,99.99
2018-03-18T03:04:48.281Z,99.99
2018-03-18T03:05:48.254Z,99.99
2018-03-18T03:06:48.174Z,99.99
2018-03-18T03:07:47.877Z,99.99
2018-03-18T03:08:48.225Z,99.99
2018-03-18T03:09:48.197Z,99.99
2018-03-18T03:10:48.068Z,99.99
2018-03-18T03:11:48.075Z,99.99
2018-03-18T03:12:48.005Z,99.99
2018-03-18T03:13:47.977Z,99.99
2018-03-18T03:14:47.688Z,99.99
2018-03-18T03:15:47.923Z,99.99
2018-03-18T03:16:47.640Z,99.99
2018-03-18T03:17:47.870Z,99.99
2018-03-18T03:18:47.581Z,99.99
2018-03-18T03:19:47.826Z,99.99
2018-03-18T03:20:47.791Z,99.99
2018-03-18T03:21:47.767Z,99.99
2018-03-18T03:22:47.737Z,99.99
2018-03-18T03:23:47.709Z,99.99
2018-03-18T03:24:47.686Z,99.99
2018-03-18T03:25:47.660Z,99.99
2018-03-18T03:26:47.632Z,99.99
2018-03-18T03:27:47.610Z,99.99
2018-03-18T03:28:47.314Z,99.99
2018-03-18T03:29:47.285Z,99.99
2018-03-18T03:30:47.259Z,99.99
2018-03-18T03:31:47.236Z,99.99
2018-03-18T03:32:47.209Z,99.99
2018-03-18T03:33:47.452Z,99.99
2018-03-18T03:34:47.415Z,99.99
2018-03-18T03:35:47.387Z,99.99
2018-03-18T03:36:47.099Z,99.99
2018-03-18T03:37:47.074Z,99.99
2018-03-18T03:38:47.049Z,99.99
2018-03-18T03:39:47.284Z,99.99
2018-03-18T03:40:46.998Z,99.99
2018-03-18T03:41:46.968Z,99.99
2018-03-18T03:42:46.947Z,99.99
2018-03-18T03:43:47.182Z,99.99
2018-03-18T03:44:46.888Z,99.99
2018-03-18T03:45:47.125Z,99.99
2018-03-18T03:46:46.839Z,99.99
2018-03-18T03:47:47.084Z,99.99
2018-03-18T03:48:46.778Z,99.99
2018-03-18T03:49:47.016Z,99.99
2018-03-18T03:50:47.196Z,99.99
2018-03-18T03:51:46.964Z,99.99
2018-03-18T03:52:46.937Z,99.99
2018-03-18T03:53:46.920Z,99.99
2018-03-18T03:54:46.887Z,99.99
2018-03-18T03:55:46.860Z,99.99
2018-03-18T03:56:46.845Z,99.99
2018-03-18T03:57:46.809Z,99.99
2018-03-18T03:58:46.512Z,99.99
2018-03-18T03:59:46.750Z,99.99
2018-03-18T04:00:46.728Z,99.99
2018-03-18T04:01:46.435Z,99.99
2018-03-18T04:02:46.672Z,99.99
2018-03-18T04:03:46.652Z,99.99
2018-03-18T04:04:46.624Z,99.99
2018-03-18T04:05:46.593Z,99.99
2018-03-18T04:06:46.568Z,99.99
2018-03-18T04:07:46.540Z,99.99
2018-03-18T04:08:46.250Z,99.99
2018-03-18T04:09:46.485Z,99.99
2018-03-18T04:10:46.460Z,99.99
2018-03-18T04:11:46.430Z,99.99
2018-03-18T04:12:46.150Z,99.99
2018-03-18T04:13:46.382Z,99.99
2018-03-18T04:14:46.091Z,99.99
2018-03-18T04:15:46.063Z,99.99
2018-03-18T04:16:46.035Z,99.99
2018-03-18T04:17:46.274Z,99.99
2018-03-18T04:18:45.986Z,99.99
2018-03-18T04:19:45.954Z,99.99
2018-03-18T04:20:45.930Z,99.99
2018-03-18T04:21:45.900Z,99.99
2018-03-18T04:22:46.138Z,99.99
2018-03-18T04:23:45.846Z,99.99
2018-03-18T04:24:45.820Z,99.99
2018-03-18T04:25:46.076Z,99.99
2018-03-18T04:26:45.778Z,99.99
2018-03-18T04:27:46.010Z,99.99
2018-03-18T04:28:45.712Z,99.99
2018-03-18T04:29:45.690Z,99.99
2018-03-18T04:30:45.665Z,99.99
2018-03-18T04:31:45.633Z,99.99
2018-03-18T04:32:45.875Z,99.99
2018-03-18T04:33:45.579Z,99.99
2018-03-18T04:34:45.821Z,99.99
2018-03-18T04:35:45.527Z,99.99
2018-03-18T04:36:45.506Z,99.99
2018-03-18T04:37:45.477Z,99.99
2018-03-18T04:38:45.710Z,99.99
2018-03-18T04:39:45.698Z,99.99
2018-03-18T04:40:45.394Z,99.99
2018-03-18T04:41:45.368Z,99.99
2018-03-18T04:42:45.602Z,99.99
2018-03-18T04:43:45.581Z,99.99
2018-03-18T04:44:45.290Z,99.99
2018-03-18T04:45:45.259Z,99.99
2018-03-18T04:46:45.495Z,99.99
2018-03-18T04:47:45.208Z,99.99
2018-03-18T04:48:45.445Z,99.99
2018-03-18T04:49:45.418Z,99.99
2018-03-18T04:50:45.392Z,99.99
2018-03-18T04:51:45.098Z,99.99
2018-03-18T04:52:45.075Z,99.99
2018-03-18T04:53:45.051Z,99.99
2018-03-18T04:54:45.283Z,99.99
2018-03-18T04:55:45.257Z,99.99
2018-03-18T04:56:44.965Z,99.99
2018-03-18T04:57:44.938Z,99.99
2018-03-18T04:58:45.177Z,99.99
2018-03-18T04:59:45.160Z,99.99
2018-03-18T05:00:44.860Z,99.99
2018-03-18T05:01:44.833Z,99.99
2018-03-18T05:02:45.066Z,99.99
2018-03-18T05:03:45.050Z,99.99
2018-03-18T05:04:44.751Z,99.99
2018-03-18T05:05:44.991Z,99.99
2018-03-18T05:06:44.694Z,99.99
2018-03-18T05:07:44.936Z,99.99
2018-03-18T05:08:44.643Z,99.99
2018-03-18T05:09:44.614Z,99.99
2018-03-18T05:10:44.853Z,99.99
2018-03-18T05:11:44.613Z,99.99
2018-03-18T05:12:44.582Z,99.99
2018-03-18T05:13:44.784Z,99.99
2018-03-18T05:14:44.752Z,99.99
2018-03-18T05:15:44.719Z,99.99
2018-03-18T05:16:44.743Z,99.99
2018-03-18T05:17:44.673Z,99.99
2018-03-18T05:18:44.638Z,99.99
2018-03-18T05:19:44.349Z,99.99
2018-03-18T05:20:44.581Z,99.99
2018-03-18T05:21:44.295Z,99.99
2018-03-18T05:22:44.267Z,99.99
2018-03-18T05:23:44.499Z,99.99
2018-03-18T05:24:44.476Z,99.99
2018-03-18T05:25:44.199Z,99.99
2018-03-18T05:26:44.423Z,99.99
2018-03-18T05:27:44.408Z,99.99
2018-03-18T05:28:44.371Z,99.99
2018-03-18T05:29:44.347Z,99.99
2018-03-18T05:30:44.320Z,99.99
2018-03-18T05:31:44.290Z,99.99
2018-03-18T05:32:44.000Z,99.99
2018-03-18T05:33:43.971Z,99.99
2018-03-18T05:34:44.208Z,99.99
2018-03-18T05:35:44.180Z,99.99
2018-03-18T05:36:43.889Z,99.99
2018-03-18T05:37:43.868Z,99.99
2018-03-18T05:38:43.835Z,99.99
2018-03-18T05:39:43.811Z,99.99
2018-03-18T05:40:44.101Z,99.99
2018-03-18T05:41:44.021Z,99.99
2018-03-18T05:42:44.046Z,99.99
2018-03-18T05:43:43.698Z,99.99
2018-03-18T05:44:43.938Z,99.99
2018-03-18T05:45:43.914Z,99.99
2018-03-18T05:46:43.895Z,99.99
2018-03-18T05:47:43.860Z,99.99
2018-03-18T05:48:43.573Z,99.99
2018-03-18T05:49:43.539Z,99.99
2018-03-18T05:50:43.723Z,99.99
2018-03-18T05:51:43.491Z,99.99
2018-03-18T05:52:43.722Z,99.99
2018-03-18T05:53:43.435Z,99.99
2018-03-18T05:54:43.407Z,99.99
2018-03-18T05:55:43.691Z,99.99
2018-03-18T05:56:43.614Z,99.99
2018-03-18T05:57:43.324Z,99.99
2018-03-18T05:58:43.559Z,99.99
2018-03-18T05:59:43.535Z,99.99
2018-03-18T06:00:43.511Z,99.99
2018-03-18T06:01:43.487Z,99.99
2018-03-18T06:02:43.454Z,99.99
2018-03-18T06:03:43.166Z,99.99
2018-03-18T06:04:43.409Z,99.99
2018-03-18T06:05:43.377Z,99.99
2018-03-18T06:06:43.088Z,99.99
2018-03-18T06:07:43.366Z,99.99
2018-03-18T06:08:43.026Z,99.99
2018-03-18T06:09:42.998Z,99.99
2018-03-18T06:10:42.976Z,99.99
2018-03-18T06:11:43.217Z,99.99
2018-03-18T06:12:42.929Z,99.99
2018-03-18T06:13:43.160Z,99.99
2018-03-18T06:14:43.134Z,99.99
2018-03-18T06:15:42.850Z,99.99
2018-03-18T06:16:43.080Z,99.99
2018-03-18T06:17:43.049Z,99.99
2018-03-18T06:18:43.027Z,99.99
2018-03-18T06:19:43.014Z,99.99
2018-03-18T06:20:42.967Z,99.99
2018-03-18T06:21:42.942Z,99.99
2018-03-18T06:22:42.647Z,99.99
2018-03-18T06:23:42.634Z,99.99
2018-03-18T06:24:42.596Z,99.99
2018-03-18T06:25:42.576Z,99.99
2018-03-18T06:26:42.815Z,99.99
2018-03-18T06:27:42.563Z,99.99
2018-03-18T06:28:42.763Z,99.99
2018-03-18T06:29:42.464Z,99.99
2018-03-18T06:30:42.703Z,99.99
2018-03-18T06:31:42.679Z,99.99
2018-03-18T06:32:42.644Z,99.99
2018-03-18T06:33:42.356Z,99.99
2018-03-18T06:34:42.328Z,99.99
2018-03-18T06:35:42.305Z,99.99
2018-03-18T06:36:42.549Z,99.99
2018-03-18T06:37:42.517Z,99.99
2018-03-18T06:38:42.485Z,99.99
2018-03-18T06:39:42.472Z,99.99
2018-03-18T06:40:42.437Z,99.99
2018-03-18T06:41:42.143Z,99.99
2018-03-18T06:42:42.438Z,99.99
2018-03-18T06:43:42.086Z,99.99
2018-03-18T06:44:42.344Z,99.99
2018-03-18T06:45:42.300Z,99.99
2018-03-18T06:46:42.005Z,99.99
2018-03-18T06:47:42.037Z,99.99
2018-03-18T06:48:42.230Z,99.99
2018-03-18T06:49:41.928Z,99.99
2018-03-18T06:50:41.898Z,99.99
2018-03-18T06:51:42.135Z,99.99
2018-03-18T06:52:42.115Z,99.99
2018-03-18T06:53:41.817Z,99.99
2018-03-18T06:54:42.066Z,99.99
2018-03-18T06:55:41.769Z,99.99
2018-03-18T06:56:42.003Z,99.99
2018-03-18T06:57:41.995Z,99.99
2018-03-18T06:58:41.955Z,99.99
2018-03-18T06:59:41.660Z,99.99
2018-03-18T07:00:41.898Z,99.99
2018-03-18T07:01:41.949Z,99.99
2018-03-18T07:02:41.580Z,99.99
2018-03-18T07:03:41.830Z,99.99
2018-03-18T07:04:41.802Z,99.99
2018-03-18T07:05:41.504Z,99.99
2018-03-18T07:06:41.752Z,99.99
2018-03-18T07:07:41.483Z,99.99
2018-03-18T07:08:41.427Z,99.99
2018-03-18T07:09:41.662Z,99.99
2018-03-18T07:10:41.636Z,99.99
2018-03-18T07:11:41.342Z,99.99
2018-03-18T07:12:41.583Z,99.99
2018-03-18T07:13:41.554Z,99.99
2018-03-18T07:14:41.262Z,99.99
2018-03-18T07:15:41.505Z,99.99
2018-03-18T07:16:41.479Z,99.99
2018-03-18T07:17:41.188Z,99.99
2018-03-18T07:18:41.424Z,99.99
2018-03-18T07:19:41.403Z,99.99
2018-03-18T07:20:41.372Z,99.99
2018-03-18T07:21:41.353Z,99.99
2018-03-18T07:22:41.319Z,99.99
2018-03-18T07:23:41.037Z,99.99
2018-03-18T07:24:41.006Z,99.99
2018-03-18T07:25:41.244Z,99.99
2018-03-18T07:26:41.219Z,99.99
2018-03-18T07:27:41.190Z,99.99
2018-03-18T07:28:41.162Z,99.99
2018-03-18T07:29:40.875Z,99.99
2018-03-18T07:30:40.843Z,99.99
2018-03-18T07:31:40.820Z,99.99
2018-03-18T07:32:40.795Z,99.99
2018-03-18T07:33:41.032Z,99.99
2018-03-18T07:34:41.017Z,99.99
2018-03-18T07:35:40.978Z,99.99
2018-03-18T07:36:41.006Z,99.27
2018-03-18T07:37:40.935Z,99.65
2018-03-18T07:38:40.694Z,99.56
2018-03-18T07:39:40.634Z,99.56
2018-03-18T07:40:40.847Z,99.37
2018-03-18T07:41:40.570Z,99.56
2018-03-18T07:42:40.801Z,99.99
2018-03-18T07:43:40.793Z,99.99
2018-03-18T07:44:40.746Z,99.84
2018-03-18T07:45:40.736Z,99.46
2018-03-18T07:46:40.426Z,99.27
2018-03-18T07:47:40.402Z,99.27
2018-03-18T07:48:40.373Z,99.56
2018-03-18T07:49:40.350Z,99.37
2018-03-18T07:50:40.796Z,99.37
2018-03-18T07:51:40.300Z,98.61
2018-03-18T07:52:40.538Z,98.9
2018-03-18T07:53:40.513Z,98.61
2018-03-18T07:54:40.224Z,99.27
2018-03-18T07:55:40.459Z,99.27
2018-03-18T07:56:40.169Z,99.46
2018-03-18T07:57:40.147Z,99.37
2018-03-18T07:58:40.119Z,98.28
2018-03-18T07:59:40.653Z,98.95
2018-03-18T08:00:40.083Z,98.1
2018-03-18T08:01:40.313Z,97.53
2018-03-18T08:02:40.015Z,96.96
2018-03-18T08:03:39.989Z,96.87
2018-03-18T08:04:39.962Z,97.44
2018-03-18T08:05:39.939Z,97.63
2018-03-18T08:06:39.915Z,97.15
2018-03-18T08:07:40.149Z,97.15
2018-03-18T08:08:39.863Z,96.68
2018-03-18T08:09:39.837Z,96.4
2018-03-18T08:10:40.075Z,97.72
2018-03-18T08:11:39.783Z,96.96
2018-03-18T08:12:40.024Z,97.53
2018-03-18T08:13:39.735Z,96.96
2018-03-18T08:14:39.979Z,96.4
2018-03-18T08:15:39.954Z,96.4
2018-03-18T08:16:39.939Z,96.96
2018-03-18T08:17:39.643Z,96.49
2018-03-18T08:18:39.608Z,95.83
2018-03-18T08:19:39.865Z,96.68
2018-03-18T08:20:39.825Z,96.3
2018-03-18T08:21:39.531Z,96.02
2018-03-18T08:22:39.505Z,95.45
2018-03-18T08:23:39.752Z,95.17
2018-03-18T08:24:39.721Z,95.17
2018-03-18T08:25:39.699Z,95.07
2018-03-18T08:26:39.410Z,94.51
2018-03-18T08:27:39.660Z,96.02
2018-03-18T08:28:39.620Z,95.64
2018-03-18T08:29:39.327Z,95.17
2018-03-18T08:30:39.575Z,94.89
2018-03-18T08:31:39.541Z,96.11
2018-03-18T08:32:39.523Z,95.26
2018-03-18T08:33:39.498Z,94.22
2018-03-18T08:34:39.471Z,94.32
2018-03-18T08:35:39.444Z,93.75
2018-03-18T08:36:39.422Z,92.71
2018-03-18T08:37:39.399Z,92.61
2018-03-18T08:38:39.109Z,93.56
2018-03-18T08:39:39.085Z,92.99
2018-03-18T08:40:39.059Z,92
2018-03-18T08:41:39.302Z,91.53
2018-03-18T08:42:39.007Z,91.62
2018-03-18T08:43:39.252Z,91.72
2018-03-18T08:44:39.231Z,92.29
2018-03-18T08:45:38.935Z,90.58
2018-03-18T08:46:38.959Z,91.34
2018-03-18T08:47:39.154Z,90.58
2018-03-18T08:48:39.127Z,90.49
2018-03-18T08:49:39.103Z,90.3
2018-03-18T08:50:38.814Z,89.45
2018-03-18T08:51:38.810Z,90.49
2018-03-18T08:52:38.769Z,90.49
2018-03-18T08:53:38.742Z,88.55
2018-03-18T08:54:38.980Z,88.03
2018-03-18T08:55:38.964Z,87.65
2018-03-18T08:56:38.938Z,87.79
2018-03-18T08:57:38.653Z,86.28
2018-03-18T08:58:38.893Z,85.52
2018-03-18T08:59:38.884Z,85.71
2018-03-18T09:00:38.581Z,84.77
2018-03-18T09:01:38.557Z,84.67
2018-03-18T09:02:38.798Z,84.39
2018-03-18T09:03:38.780Z,84.48
2018-03-18T09:04:38.492Z,84.95
2018-03-18T09:05:38.472Z,85.14
2018-03-18T09:06:38.785Z,85.61
2018-03-18T09:07:38.686Z,84.77
2018-03-18T09:08:38.393Z,84.67
2018-03-18T09:09:38.636Z,83.91
2018-03-18T09:10:38.615Z,84.01
2018-03-18T09:11:38.330Z,84.01
2018-03-18T09:12:38.569Z,84.2
2018-03-18T09:13:38.558Z,84.86
2018-03-18T09:14:38.255Z,84.77
2018-03-18T09:15:38.237Z,85.42
2018-03-18T09:16:38.212Z,85.52
2018-03-18T09:17:38.454Z,85.14
2018-03-18T09:18:38.165Z,85.52
2018-03-18T09:19:38.408Z,85.14
2018-03-18T09:20:38.125Z,85.1
2018-03-18T09:21:38.098Z,84.39
2018-03-18T09:22:38.346Z,84.58
2018-03-18T09:23:38.318Z,85.28
2018-03-18T09:24:38.030Z,85
2018-03-18T09:25:38.006Z,85.76
2018-03-18T09:26:37.988Z,85.52
2018-03-18T09:27:37.972Z,86.56
2018-03-18T09:28:38.204Z,86.09
2018-03-18T09:29:37.924Z,85.42
2018-03-18T09:30:37.896Z,85.05
2018-03-18T09:31:38.145Z,84.48
2018-03-18T09:32:38.106Z,84.67
2018-03-18T09:33:37.823Z,84.86
2018-03-18T09:34:37.802Z,86.18
2018-03-18T09:35:37.805Z,85.8
2018-03-18T09:36:38.013Z,85.61
2018-03-18T09:37:37.731Z,85.52
2018-03-18T09:38:37.706Z,86.28
2018-03-18T09:39:37.687Z,85.99
2018-03-18T09:40:37.939Z,87.04
2018-03-18T09:41:37.902Z,86.47
2018-03-18T09:42:37.618Z,85.52
2018-03-18T09:43:37.603Z,85.71
2018-03-18T09:44:37.835Z,85.52
2018-03-18T09:45:37.815Z,84.29
2018-03-18T09:46:37.528Z,83.53
2018-03-18T09:47:37.501Z,83.15
2018-03-18T09:48:37.799Z,82.91
2018-03-18T09:49:37.731Z,82.06
2018-03-18T09:50:38.117Z,81.59
2018-03-18T09:51:37.419Z,81.12
2018-03-18T09:52:37.395Z,80.77
2018-03-18T09:53:37.650Z,80.87
2018-03-18T09:54:37.347Z,80.49
2018-03-18T09:55:37.602Z,79.83
2018-03-18T09:56:37.588Z,78.5
2018-03-18T09:57:37.566Z,78.5
2018-03-18T09:58:37.286Z,76.8
2018-03-18T09:59:37.510Z,77.08
2018-03-18T10:00:37.495Z,76.7
2018-03-18T10:01:37.475Z,77.89
2018-03-18T10:02:37.645Z,78.75
2018-03-18T10:03:37.429Z,79.88
2018-03-18T10:04:37.415Z,79.6
2018-03-18T10:05:37.389Z,79.6
2018-03-18T10:06:37.379Z,79.32
2018-03-18T10:07:37.346Z,79.47
2018-03-18T10:08:37.061Z,80.04
2018-03-18T10:09:37.045Z,79.94
2018-03-18T10:10:37.333Z,80.22
2018-03-18T10:11:37.271Z,79.94
2018-03-18T10:12:36.978Z,80.04
2018-03-18T10:13:37.219Z,80.51
2018-03-18T10:14:36.936Z,80.51
2018-03-18T10:15:37.173Z,80.79
2018-03-18T10:16:37.158Z,80.98
2018-03-18T10:17:37.136Z,80.88
2018-03-18T10:18:37.136Z,81.83
2018-03-18T10:19:36.828Z,81.93
2018-03-18T10:20:37.066Z,82.02
2018-03-18T10:21:37.069Z,80.98
2018-03-18T10:22:37.022Z,80.69
2018-03-18T10:23:37.000Z,80.69
2018-03-18T10:24:36.721Z,79.75
2018-03-18T10:25:37.019Z,79.85
2018-03-18T10:26:36.672Z,80.6
2018-03-18T10:27:36.649Z,80.13
2018-03-18T10:28:36.624Z,80.69
2018-03-18T10:29:36.601Z,80.83
2018-03-18T10:30:36.590Z,80.74
2018-03-18T10:31:36.824Z,81.68
2018-03-18T10:32:36.848Z,81.87
2018-03-18T10:33:36.782Z,82.44
2018-03-18T10:34:36.496Z,82.44
2018-03-18T10:35:36.738Z,82.25
2018-03-18T10:36:36.718Z,81.59
2018-03-18T10:37:36.690Z,80.93
2018-03-18T10:38:36.677Z,81.77
2018-03-18T10:39:36.692Z,82.34
2018-03-18T10:40:36.630Z,82.34
2018-03-18T10:41:36.337Z,81.12
2018-03-18T10:42:36.589Z,79.5
2018-03-18T10:43:36.563Z,78.56
2018-03-18T10:44:36.552Z,78.56
2018-03-18T10:45:36.257Z,79.22
2018-03-18T10:46:36.233Z,79.98
2018-03-18T10:47:36.474Z,79.69
2018-03-18T10:48:36.458Z,80.17
2018-03-18T10:49:36.169Z,79.13
2018-03-18T10:50:36.414Z,79.32
2018-03-18T10:51:36.130Z,79.22
2018-03-18T10:52:36.377Z,79.32
2018-03-18T10:53:36.090Z,77.99
2018-03-18T10:54:36.333Z,77.33
2018-03-18T10:55:36.045Z,77.51
2018-03-18T10:56:36.392Z,77.61
2018-03-18T10:57:36.004Z,77.51
2018-03-18T10:58:36.259Z,77.99
2018-03-18T10:59:35.965Z,77.61
2018-03-18T11:00:35.946Z,77.42
2018-03-18T11:01:36.193Z,77.23
2018-03-18T11:02:36.162Z,78.56
2018-03-18T11:03:35.878Z,78.41
2018-03-18T11:04:35.859Z,77.75
2018-03-18T11:05:36.103Z,77.37
2018-03-18T11:06:35.815Z,77.18
2018-03-18T11:07:36.058Z,77.37
2018-03-18T11:08:35.774Z,76.8
2018-03-18T11:09:35.755Z,75.66
2018-03-18T11:10:35.999Z,74.9
2018-03-18T11:11:35.727Z,76.04
2018-03-18T11:12:35.961Z,75.6
2018-03-18T11:13:35.941Z,75.42
2018-03-18T11:14:35.923Z,75.23
2018-03-18T11:15:35.644Z,74.75
2018-03-18T11:16:35.883Z,74.22
2018-03-18T11:17:35.609Z,73.84
2018-03-18T11:18:35.579Z,74.03
2018-03-18T11:19:35.564Z,73.41
2018-03-18T11:20:35.809Z,70.75
2018-03-18T11:21:35.793Z,70.69
2018-03-18T11:22:35.516Z,69.74
2018-03-18T11:23:35.760Z,68.7
2018-03-18T11:24:35.743Z,67.75
2018-03-18T11:25:35.734Z,69.17
2018-03-18T11:26:35.452Z,67.85
2018-03-18T11:27:35.432Z,68.04
2018-03-18T11:28:35.683Z,67.37
2018-03-18T11:29:35.408Z,68.04
2018-03-18T11:30:35.658Z,68.13
2018-03-18T11:31:35.380Z,68.04
2018-03-18T11:32:35.364Z,67.94
2018-03-18T11:33:35.615Z,67.85
2018-03-18T11:34:35.603Z,66.99
2018-03-18T11:35:35.345Z,66.99
2018-03-18T11:36:35.307Z,66.29
2018-03-18T11:37:35.291Z,67.81
2018-03-18T11:38:35.635Z,68.76
2018-03-18T11:39:35.264Z,68.66
2018-03-18T11:40:35.252Z,68.48
2018-03-18T11:41:35.503Z,68.76
2018-03-18T11:42:35.486Z,69.33
2018-03-18T11:43:35.542Z,68.85
2018-03-18T11:44:35.196Z,68.85
2018-03-18T11:45:35.439Z,68.95
2018-03-18T11:46:35.434Z,67.9
2018-03-18T11:47:35.413Z,67.05
2018-03-18T11:48:35.395Z,67.71
2018-03-18T11:49:35.473Z,67.81
2018-03-18T11:50:35.370Z,68
2018-03-18T11:51:35.351Z,67.24
2018-03-18T11:52:35.334Z,67.33
2018-03-18T11:53:35.319Z,68
2018-03-18T11:54:35.040Z,68.29
2018-03-18T11:55:35.030Z,68.66
2018-03-18T11:56:35.012Z,67.85
2018-03-18T11:57:35.273Z,67.85
2018-03-18T11:58:35.247Z,66.71
2018-03-18T11:59:35.230Z,67.08
2018-03-18T12:00:34.953Z,66.89
2018-03-18T12:01:35.202Z,67.18
2018-03-18T12:02:34.925Z,66.83
2018-03-18T12:03:35.176Z,67.97
2018-03-18T12:04:34.895Z,66.74
2018-03-18T12:05:35.159Z,66.17
2018-03-18T12:06:35.167Z,65.44
2018-03-18T12:07:35.117Z,64.59
2018-03-18T12:08:34.843Z,63.73
2018-03-18T12:09:35.097Z,63.17
2018-03-18T12:10:35.083Z,62.21
2018-03-18T12:11:34.808Z,62.94
2018-03-18T12:12:35.093Z,63.51
2018-03-18T12:13:35.053Z,63.89
2018-03-18T12:14:34.769Z,63.89
2018-03-18T12:15:34.758Z,63.17
2018-03-18T12:16:35.016Z,63.26
2018-03-18T12:17:35.001Z,62.97
2018-03-18T12:18:34.987Z,61.68
2018-03-18T12:19:34.720Z,60.69
2018-03-18T12:20:34.698Z,61.9
2018-03-18T12:21:34.690Z,61.68
2018-03-18T12:22:34.681Z,63.57
2018-03-18T12:23:34.668Z,63.48
2018-03-18T12:24:34.918Z,64.33
2018-03-18T12:25:34.906Z,64.81
2018-03-18T12:26:34.887Z,65.25
2018-03-18T12:27:34.619Z,66.1
2018-03-18T12:28:34.861Z,66.58
2018-03-18T12:29:34.857Z,67.02
2018-03-18T12:30:34.843Z,66.26
2018-03-18T12:31:34.823Z,66.54
2018-03-18T12:32:34.541Z,66.26
2018-03-18T12:33:34.526Z,67.4
2018-03-18T12:34:34.771Z,67.4
2018-03-18T12:35:34.493Z,68.15
2018-03-18T12:36:34.479Z,67.4
2018-03-18T12:37:34.731Z,67.77
2018-03-18T12:38:34.705Z,68.54
2018-03-18T12:39:34.694Z,69.57
2018-03-18T12:40:34.413Z,69.29
2018-03-18T12:41:34.661Z,68.44
2018-03-18T12:42:34.378Z,68.25
2018-03-18T12:43:34.629Z,68.06
2018-03-18T12:44:34.360Z,67.77
2018-03-18T12:45:34.332Z,67.58
2018-03-18T12:46:34.570Z,67.65
2018-03-18T12:47:34.568Z,67.11
2018-03-18T12:48:34.273Z,66.54
2018-03-18T12:49:34.262Z,67.3
2018-03-18T12:50:34.233Z,68.69
2018-03-18T12:51:34.226Z,68.4
2018-03-18T12:52:34.467Z,67.55
2018-03-18T12:53:34.492Z,67.3
2018-03-18T12:54:34.445Z,68.12